Archival Weather

Norman Y Mineta San Jose Intl

San Jose, California (KSJC)

Report from: Sunday, February 18, 2024 4:53 AM PST
Current time: Friday, June 21, 2024 1:39 AM PDT

Current weather – Weather history – Daily summaries
Weather forecast

Temperature11.7°C (53.1°F)
Dew point10.0°C (50.0°F)
Winds 4 kts (2.1 m/s, 4.6 mph) South (180°)
Visibility10 mi. (16.1 km)
Clouds Ceiling: Broken clouds 4,300 ft. (1,311 m)
Broken clouds 5,000 ft. (1,524 m)
Altimeter29.96 in.Hg (1015 mB)
Relative humidity89 %
Density altitude-255 ft. (-78 m)
Sea-level pressure101.4 kPa (1014 mB, 29.95 in.Hg)
Remarks Fully automated report
Automated weather observing station with precipitation discriminator
Flight conditions Visual Meteorological Conditions
Raw dataKSJC 181253Z AUTO 18004KT 10SM BKN043 BKN050 12/10 A2996 RMK AO2 SLP143 T01170100
An error has occurred. This application may no longer respond until reloaded. Reload 🗙